createdAt,value
2022-08-23T00:01:13.379Z,99792.56
2022-08-23T00:04:07.773Z,99791.81
2022-08-23T00:06:57.037Z,99796.09
2022-08-23T00:09:49.688Z,99797.09
2022-08-23T00:12:41.152Z,99797.38
2022-08-23T00:15:31.557Z,99803.84
2022-08-23T00:18:20.657Z,99789.81
2022-08-23T00:21:10.431Z,99791.66
2022-08-23T00:23:58.781Z,99791.16
2022-08-23T00:27:14.049Z,99785.34
2022-08-23T00:30:02.962Z,99780.53
2022-08-23T00:32:55.619Z,99761.44
2022-08-23T00:35:47.884Z,99770.84
2022-08-23T00:38:37.688Z,99784.94
2022-08-23T00:41:29.300Z,99775.03
2022-08-23T00:44:52.091Z,99787.41
2022-08-23T00:47:41.370Z,99785.19
2022-08-23T00:50:36.981Z,99778.13
2022-08-23T00:53:32.102Z,99778.47
2022-08-23T00:56:23.487Z,99774.97
2022-08-23T00:59:12.218Z,99777.84
2022-08-23T01:02:01.372Z,99768.97
2022-08-23T01:04:57.321Z,99785.13
2022-08-23T01:07:55.507Z,99775.50
2022-08-23T01:10:50.894Z,99783.22
2022-08-23T01:13:47.673Z,99787.56
2022-08-23T01:17:13.134Z,99787.81
2022-08-23T01:20:07.929Z,99782.25
2022-08-23T01:23:07.383Z,99786.63
2022-08-23T01:25:55.490Z,99776.19
2022-08-23T01:28:45.813Z,99764.25
2022-08-23T01:31:35.327Z,99786.00
2022-08-23T01:34:28.557Z,99792.41
2022-08-23T01:37:16.697Z,99773.28
2022-08-23T01:40:06.700Z,99783.22
2022-08-23T01:42:55.005Z,99786.78
2022-08-23T01:45:43.714Z,99788.84
2022-08-23T01:48:31.859Z,99790.38
2022-08-23T01:51:21.709Z,99782.47
2022-08-23T01:54:10.056Z,99797.28
2022-08-23T01:56:57.984Z,99780.19
2022-08-23T01:59:46.161Z,99780.69
2022-08-23T02:02:34.037Z,99774.06
2022-08-23T02:05:22.000Z,99781.97
2022-08-23T02:08:28.978Z,99784.78
2022-08-23T02:11:22.169Z,99786.56
2022-08-23T02:14:19.617Z,99780.19
2022-08-23T02:17:07.521Z,99779.41
2022-08-23T02:19:55.845Z,99787.81
2022-08-23T02:22:43.755Z,99790.38
2022-08-23T02:25:31.643Z,99789.59
2022-08-23T02:28:24.583Z,99788.06
2022-08-23T02:31:12.708Z,99796.22
2022-08-23T02:37:10.001Z,99794.97
2022-08-23T02:39:58.134Z,99804.41
2022-08-23T02:42:46.324Z,99804.13
2022-08-23T02:45:35.205Z,99800.53
2022-08-23T02:48:23.511Z,99804.06
2022-08-23T02:51:11.581Z,99793.13
2022-08-23T02:54:00.338Z,99801.00
2022-08-23T02:56:48.312Z,99809.19
2022-08-23T02:59:36.302Z,99795.38
2022-08-23T03:02:24.333Z,99782.31
2022-08-23T03:05:13.794Z,99813.75
2022-08-23T03:08:01.928Z,99811.94
2022-08-23T03:10:52.678Z,99799.91
2022-08-23T03:13:42.532Z,99812.94
2022-08-23T03:16:30.841Z,99801.94
2022-08-23T03:19:18.903Z,99809.03
2022-08-23T03:22:06.800Z,99812.50
2022-08-23T03:24:54.704Z,99815.59
2022-08-23T03:27:44.960Z,99808.63
2022-08-23T03:30:33.886Z,99814.34
2022-08-23T03:33:22.552Z,99817.31
2022-08-23T03:36:12.209Z,99807.59
2022-08-23T03:39:04.270Z,99819.84
2022-08-23T03:41:52.120Z,99809.50
2022-08-23T03:44:39.985Z,99807.72
2022-08-23T03:47:28.848Z,99814.63
2022-08-23T03:50:16.715Z,99821.47
2022-08-23T03:53:05.734Z,99825.28
2022-08-23T03:55:55.740Z,99813.50
2022-08-23T03:58:43.536Z,99816.06
2022-08-23T04:01:31.409Z,99832.63
2022-08-23T04:04:19.855Z,99837.00
2022-08-23T04:07:08.182Z,99842.06
2022-08-23T04:09:56.408Z,99832.84
2022-08-23T04:12:44.257Z,99836.69
2022-08-23T04:15:32.184Z,99845.06
2022-08-23T04:18:20.440Z,99835.63
2022-08-23T04:21:13.141Z,99842.19
2022-08-23T04:24:01.224Z,99847.31
2022-08-23T04:26:49.628Z,99845.00
2022-08-23T04:29:39.955Z,99859.78
2022-08-23T04:32:28.506Z,99852.59
2022-08-23T04:35:17.016Z,99851.00
2022-08-23T04:38:04.829Z,99856.38
2022-08-23T04:41:31.210Z,99858.94
2022-08-23T04:44:19.171Z,99875.09
2022-08-23T04:47:09.850Z,99876.31
2022-08-23T04:49:57.897Z,99867.81
2022-08-23T04:52:45.906Z,99872.47
2022-08-23T04:55:36.341Z,99866.59
2022-08-23T04:58:24.542Z,99885.31
2022-08-23T05:01:13.652Z,99872.47
2022-08-23T05:04:03.341Z,99878.88
2022-08-23T05:06:52.199Z,99877.72
2022-08-23T05:09:40.073Z,99881.56
2022-08-23T05:12:28.275Z,99879.03
2022-08-23T05:15:16.220Z,99871.72
2022-08-23T05:18:04.175Z,99894.03
2022-08-23T05:20:52.506Z,99892.16
2022-08-23T05:23:40.378Z,99884.81
2022-08-23T05:26:28.372Z,99902.75
2022-08-23T05:29:16.260Z,99906.66
2022-08-23T05:32:04.632Z,99915.16
2022-08-23T05:34:52.524Z,99915.53
2022-08-23T05:37:40.491Z,99915.13
2022-08-23T05:40:28.951Z,99906.72
2022-08-23T05:43:18.438Z,99923.94
2022-08-23T05:46:13.748Z,99934.94
2022-08-23T05:49:02.642Z,99942.41
2022-08-23T05:51:51.686Z,99933.47
2022-08-23T05:54:40.494Z,99935.47
2022-08-23T05:57:28.447Z,99921.38
2022-08-23T06:00:16.483Z,99935.38
2022-08-23T06:03:04.692Z,99942.56
2022-08-23T06:05:58.525Z,99934.09
2022-08-23T06:08:48.545Z,99942.09
2022-08-23T06:11:36.761Z,99943.25
2022-08-23T06:14:24.773Z,99945.97
2022-08-23T06:17:12.989Z,99954.06
2022-08-23T06:20:01.162Z,99945.50
2022-08-23T06:22:49.251Z,99938.28
2022-08-23T06:25:39.884Z,99942.88
2022-08-23T06:28:32.287Z,99956.31
2022-08-23T06:31:43.985Z,99953.53
2022-08-23T06:34:38.538Z,99946.34
2022-08-23T06:37:31.080Z,99925.94
2022-08-23T06:40:21.292Z,99954.19
2022-08-23T06:43:12.848Z,99952.34
2022-08-23T06:46:21.084Z,99951.03
2022-08-23T06:49:15.051Z,99952.72
2022-08-23T06:52:08.036Z,99951.19
2022-08-23T06:54:58.816Z,99951.78
2022-08-23T06:57:50.140Z,99955.25
2022-08-23T07:00:41.340Z,99948.66
2022-08-23T07:03:32.184Z,99954.50
2022-08-23T07:06:27.767Z,99954.97
2022-08-23T07:09:19.181Z,99960.78
2022-08-23T07:12:11.026Z,99949.28
2022-08-23T07:15:01.631Z,99953.97
2022-08-23T07:17:52.316Z,99959.84
2022-08-23T07:20:43.968Z,99956.47
2022-08-23T07:23:38.416Z,99959.03
2022-08-23T07:26:31.329Z,99964.72
2022-08-23T07:29:24.746Z,99951.28
2022-08-23T07:32:18.532Z,99954.66
2022-08-23T07:35:10.609Z,99965.41
2022-08-23T07:38:03.034Z,99955.56
2022-08-23T07:40:55.766Z,99934.88
2022-08-23T07:43:47.695Z,99967.94
2022-08-23T07:46:41.040Z,99968.44
2022-08-23T07:49:31.172Z,99962.78
2022-08-23T07:52:21.436Z,99969.91
2022-08-23T07:55:09.850Z,99970.97
2022-08-23T07:58:01.008Z,99970.75
2022-08-23T08:00:54.446Z,99972.06
2022-08-23T08:03:47.946Z,99965.25
2022-08-23T08:07:04.730Z,99964.00
2022-08-23T08:09:57.144Z,99967.03
2022-08-23T08:12:49.975Z,99974.03
2022-08-23T08:15:43.883Z,99967.22
2022-08-23T08:18:33.181Z,99941.94
2022-08-23T08:21:24.918Z,99976.34
2022-08-23T08:24:17.630Z,99964.00
2022-08-23T08:27:09.109Z,99976.13
2022-08-23T08:30:00.747Z,99977.91
2022-08-23T08:32:52.970Z,99982.31
2022-08-23T08:35:48.139Z,99981.28
2022-08-23T08:38:51.753Z,99979.06
2022-08-23T08:42:24.707Z,99983.97
2022-08-23T08:45:59.268Z,99985.47
2022-08-23T08:48:58.712Z,99984.75
2022-08-23T08:52:08.836Z,99978.72
2022-08-23T08:55:21.058Z,99975.72
2022-08-23T08:58:21.946Z,99988.81
2022-08-23T09:01:15.477Z,99991.06
2022-08-23T09:04:08.288Z,99980.53
2022-08-23T09:07:33.008Z,99980.09
2022-08-23T09:11:06.997Z,99987.72
2022-08-23T09:14:38.510Z,99985.63
2022-08-23T09:17:56.519Z,99981.06
2022-08-23T09:20:52.803Z,99987.91
2022-08-23T09:24:00.134Z,99977.63
2022-08-23T09:26:53.968Z,99972.34
2022-08-23T09:29:57.503Z,99978.09
2022-08-23T09:32:50.189Z,99972.97
2022-08-23T09:35:41.427Z,99966.44
2022-08-23T09:38:35.765Z,99940.72
2022-08-23T09:41:41.544Z,99966.63
2022-08-23T09:44:43.649Z,99969.44
2022-08-23T09:47:44.483Z,99960.53
2022-08-23T09:50:43.636Z,99937.91
2022-08-23T09:53:41.012Z,99952.84
2022-08-23T09:56:39.438Z,99955.22
2022-08-23T09:59:56.713Z,99930.47
2022-08-23T10:02:49.390Z,99934.53
2022-08-23T10:05:43.405Z,99927.59
2022-08-23T10:08:58.538Z,99947.72
2022-08-23T10:11:51.733Z,99935.81
2022-08-23T10:14:43.857Z,99941.81
2022-08-23T10:18:03.838Z,99925.81
2022-08-23T10:21:12.188Z,99918.28
2022-08-23T10:24:39.646Z,99941.47
2022-08-23T10:28:11.092Z,99936.16
2022-08-23T10:31:33.544Z,99931.78
2022-08-23T10:35:09.416Z,99914.19
2022-08-23T10:38:17.633Z,99931.53
2022-08-23T10:41:47.485Z,99907.13
2022-08-23T10:45:16.784Z,99922.41
2022-08-23T10:48:38.590Z,99924.97
2022-08-23T10:51:47.027Z,99920.03
2022-08-23T10:54:59.517Z,99923.41
2022-08-23T10:57:52.938Z,99911.59
2022-08-23T11:00:45.179Z,99909.03
2022-08-23T11:04:06.616Z,99915.75
2022-08-23T11:07:02.205Z,99904.41
2022-08-23T11:10:26.344Z,99907.94
2022-08-23T11:13:25.514Z,99905.34
2022-08-23T11:16:29.760Z,99903.69
2022-08-23T11:19:55.656Z,99899.88
2022-08-23T11:23:07.609Z,99897.63
2022-08-23T11:25:58.124Z,99891.56
2022-08-23T11:28:50.587Z,99895.28
2022-08-23T11:32:16.626Z,99897.53
2022-08-23T11:35:43.279Z,99869.94
2022-08-23T11:39:02.715Z,99886.50
2022-08-23T11:42:06.084Z,99891.31
2022-08-23T11:44:57.257Z,99890.91
2022-08-23T11:48:22.753Z,99880.97
2022-08-23T11:51:45.651Z,99878.88
2022-08-23T11:55:17.502Z,99879.63
2022-08-23T11:58:33.911Z,99871.06
2022-08-23T12:01:36.318Z,99870.94
2022-08-23T12:04:47.343Z,99876.09
2022-08-23T12:08:03.545Z,99872.88
2022-08-23T12:11:07.978Z,99872.72
2022-08-23T12:14:57.293Z,99874.31
2022-08-23T12:17:55.350Z,99863.72
2022-08-23T12:20:49.203Z,99867.78
2022-08-23T12:23:48.020Z,99857.69
2022-08-23T12:27:17.132Z,99848.09
2022-08-23T12:30:41.000Z,99852.97
2022-08-23T12:34:17.527Z,99836.59
2022-08-23T12:37:45.897Z,99859.00
2022-08-23T12:40:50.711Z,99853.22
2022-08-23T12:44:08.888Z,99860.97
2022-08-23T12:47:13.028Z,99863.31
2022-08-23T12:50:32.906Z,99862.72
2022-08-23T12:53:42.654Z,99856.56
2022-08-23T12:56:37.092Z,99849.94
2022-08-23T13:00:17.370Z,99850.94
2022-08-23T13:03:34.164Z,99856.75
2022-08-23T13:06:39.483Z,99851.88
2022-08-23T13:09:40.305Z,99838.94
2022-08-23T13:12:32.268Z,99849.69
2022-08-23T13:15:49.109Z,99844.91
2022-08-23T13:18:46.029Z,99845.47
2022-08-23T13:21:39.615Z,99831.78
2022-08-23T13:24:40.651Z,99833.22
2022-08-23T13:27:45.823Z,99836.16
2022-08-23T13:30:59.554Z,99822.91
2022-08-23T13:33:56.899Z,99817.06
2022-08-23T13:36:49.256Z,99807.78
2022-08-23T13:39:50.245Z,99822.13
2022-08-23T13:43:02.618Z,99826.56
2022-08-23T13:45:57.649Z,99838.06
2022-08-23T13:49:13.623Z,99824.47
2022-08-23T13:55:23.285Z,99818.59
2022-08-23T13:58:28.321Z,99813.47
2022-08-23T14:01:21.680Z,99819.34
2022-08-23T14:04:13.314Z,99820.16
2022-08-23T14:07:04.193Z,99821.34
2022-08-23T14:09:57.349Z,99809.50
2022-08-23T14:12:51.626Z,99813.53
2022-08-23T14:16:57.661Z,99813.28
2022-08-23T14:19:19.162Z,99808.91
2022-08-23T14:22:11.816Z,99806.22
2022-08-23T14:25:02.402Z,99805.72
2022-08-23T14:27:54.309Z,99803.97
2022-08-23T14:30:46.030Z,99809.00
2022-08-23T14:33:41.628Z,99798.91
2022-08-23T14:36:32.311Z,99808.16
2022-08-23T14:39:24.426Z,99807.75
2022-08-23T14:42:22.542Z,99808.75
2022-08-23T14:45:13.161Z,99798.94
2022-08-23T14:48:04.321Z,99802.59
2022-08-23T14:50:58.795Z,99807.66
2022-08-23T14:53:49.768Z,99796.53
2022-08-23T14:56:41.352Z,99802.59
2022-08-23T14:59:31.760Z,99791.56
2022-08-23T15:02:27.785Z,99806.56
2022-08-23T15:05:18.323Z,99802.09
2022-08-23T15:08:11.504Z,99797.16
2022-08-23T15:14:13.203Z,99788.56
2022-08-23T15:17:05.324Z,99794.94
2022-08-23T15:19:56.495Z,99787.75
2022-08-23T15:22:55.822Z,99793.38
2022-08-23T15:25:49.837Z,99778.63
2022-08-23T15:28:41.390Z,99797.09
2022-08-23T15:31:33.459Z,99778.72
2022-08-23T15:34:24.454Z,99790.78
2022-08-23T15:37:18.904Z,99775.09
2022-08-23T15:40:08.666Z,99780.81
2022-08-23T15:43:00.246Z,99774.25
2022-08-23T15:45:53.779Z,99790.34
2022-08-23T15:49:03.835Z,99787.75
2022-08-23T15:51:54.906Z,99778.56
2022-08-23T15:54:47.781Z,99781.50
2022-08-23T15:57:50.159Z,99781.34
2022-08-23T16:00:42.420Z,99789.47
2022-08-23T16:03:33.934Z,99775.34
2022-08-23T16:06:25.316Z,99777.03
2022-08-23T16:09:27.369Z,99777.72
2022-08-23T16:12:17.537Z,99774.84
2022-08-23T16:15:08.200Z,99772.53
2022-08-23T16:17:59.943Z,99775.41
2022-08-23T16:20:54.320Z,99761.50
2022-08-23T16:23:45.747Z,99776.16
2022-08-23T16:26:39.640Z,99774.03
2022-08-23T16:29:36.159Z,99769.16
2022-08-23T16:32:28.320Z,99783.53
2022-08-23T16:35:20.090Z,99775.78
2022-08-23T16:38:13.340Z,99773.00
2022-08-23T16:41:05.555Z,99779.53
2022-08-23T16:43:56.178Z,99777.28
2022-08-23T16:46:49.207Z,99777.28
2022-08-23T16:49:37.683Z,99787.19
2022-08-23T16:52:34.692Z,99786.25
2022-08-23T16:55:25.311Z,99790.44
2022-08-23T16:58:19.896Z,99790.53
2022-08-23T17:01:21.547Z,99785.72
2022-08-23T17:04:13.944Z,99793.94
2022-08-23T17:07:07.501Z,99788.09
2022-08-23T17:09:58.860Z,99786.09
2022-08-23T17:12:55.233Z,99782.44
2022-08-23T17:15:47.246Z,99793.84
2022-08-23T17:18:38.870Z,99793.88
2022-08-23T17:21:30.157Z,99786.75
2022-08-23T17:24:21.962Z,99795.69
2022-08-23T17:27:19.619Z,99790.25
2022-08-23T17:30:14.328Z,99796.78
2022-08-23T17:33:08.385Z,99800.25
2022-08-23T17:36:01.633Z,99810.34
2022-08-23T17:38:54.800Z,99807.31
2022-08-23T17:41:45.753Z,99813.78
2022-08-23T17:44:36.268Z,99807.19
2022-08-23T17:47:28.747Z,99814.22
2022-08-23T17:50:21.987Z,99823.72
2022-08-23T17:53:15.487Z,99824.44
2022-08-23T17:56:09.896Z,99817.25
2022-08-23T17:59:04.096Z,99817.97
2022-08-23T18:01:57.466Z,99810.56
2022-08-23T18:04:49.956Z,99826.88
2022-08-23T18:07:42.129Z,99830.22
2022-08-23T18:10:33.747Z,99831.88
2022-08-23T18:13:25.753Z,99819.53
2022-08-23T18:16:16.834Z,99833.47
2022-08-23T18:19:11.335Z,99833.81
2022-08-23T18:22:05.196Z,99834.88
2022-08-23T18:24:57.188Z,99828.13
2022-08-23T18:28:08.551Z,99840.75
2022-08-23T18:31:00.699Z,99844.47
2022-08-23T18:33:51.231Z,99854.25
2022-08-23T18:36:44.740Z,99855.66
2022-08-23T18:39:36.838Z,99860.47
2022-08-23T18:42:27.540Z,99856.59
2022-08-23T18:45:19.254Z,99865.81
2022-08-23T18:48:12.437Z,99866.81
2022-08-23T18:51:04.438Z,99863.38
2022-08-23T18:53:56.798Z,99878.84
2022-08-23T18:56:48.761Z,99875.25
2022-08-23T18:59:39.545Z,99877.47
2022-08-23T19:02:31.283Z,99885.88
2022-08-23T19:05:23.395Z,99876.66
2022-08-23T19:08:14.864Z,99888.63
2022-08-23T19:11:03.415Z,99889.31
2022-08-23T19:13:51.877Z,99903.03
2022-08-23T19:16:48.211Z,99897.84
2022-08-23T19:19:41.681Z,99903.09
2022-08-23T19:22:33.823Z,99904.84
2022-08-23T19:25:23.670Z,99897.75
2022-08-23T19:28:16.411Z,99898.28
2022-08-23T19:31:09.633Z,99916.06
2022-08-23T19:34:00.182Z,99910.50
2022-08-23T19:37:00.627Z,99919.53
2022-08-23T19:39:53.594Z,99917.53
2022-08-23T19:42:44.113Z,99925.16
2022-08-23T19:45:38.807Z,99929.69
2022-08-23T19:48:29.582Z,99917.66
2022-08-23T19:51:22.463Z,99918.75
2022-08-23T19:54:17.387Z,99922.69
2022-08-23T19:57:10.066Z,99918.47
2022-08-23T20:00:09.642Z,99932.56
2022-08-23T20:03:01.204Z,99934.41
2022-08-23T20:05:52.939Z,99929.34
2022-08-23T20:08:44.672Z,99933.03
2022-08-23T20:11:37.150Z,99928.78
2022-08-23T20:14:33.904Z,99936.69
2022-08-23T20:17:24.703Z,99948.59
2022-08-23T20:20:15.067Z,99935.31
2022-08-23T20:23:25.932Z,99952.19
2022-08-23T20:26:16.441Z,99954.25
2022-08-23T20:29:08.128Z,99956.34
2022-08-23T20:32:05.972Z,99965.19
2022-08-23T20:35:02.753Z,99952.38
2022-08-23T20:37:54.461Z,99938.69
2022-08-23T20:40:46.739Z,99941.28
2022-08-23T20:43:40.687Z,99945.88
2022-08-23T20:46:33.018Z,99947.53
2022-08-23T20:49:23.480Z,99956.25
2022-08-23T20:52:13.166Z,99936.59
2022-08-23T20:55:03.386Z,99955.53
2022-08-23T20:58:01.574Z,99950.50
2022-08-23T21:00:51.918Z,99947.66
2022-08-23T21:03:42.228Z,99955.94
2022-08-23T21:06:45.371Z,99956.00
2022-08-23T21:09:39.569Z,99953.50
2022-08-23T21:12:30.033Z,99964.78
2022-08-23T21:15:20.938Z,99978.88
2022-08-23T21:18:10.391Z,99986.66
2022-08-23T21:21:00.328Z,99987.47
2022-08-23T21:23:50.074Z,99979.25
2022-08-23T21:26:38.800Z,99990.59
2022-08-23T21:29:26.845Z,99984.72
2022-08-23T21:32:18.027Z,99988.00
2022-08-23T21:35:09.445Z,99981.41
2022-08-23T21:37:57.861Z,99992.69
2022-08-23T21:40:58.093Z,99989.41
2022-08-23T21:43:46.103Z,100002.69
2022-08-23T21:46:36.540Z,100008.16
2022-08-23T21:49:24.696Z,100006.31
2022-08-23T21:52:15.894Z,100005.31
2022-08-23T21:55:11.661Z,100011.16
2022-08-23T21:58:04.287Z,100012.66
2022-08-23T22:00:52.905Z,100002.50
2022-08-23T22:03:41.966Z,100013.47
2022-08-23T22:06:33.802Z,100012.38
2022-08-23T22:09:31.081Z,100008.75
2022-08-23T22:12:24.975Z,100014.34
2022-08-23T22:15:15.705Z,100009.94
2022-08-23T22:18:07.987Z,100006.06
2022-08-23T22:20:58.534Z,100015.03
2022-08-23T22:23:47.060Z,100013.50
2022-08-23T22:26:35.458Z,100011.66
2022-08-23T22:29:27.306Z,100016.19
2022-08-23T22:32:15.827Z,100016.63
2022-08-23T22:35:09.015Z,100010.22
2022-08-23T22:38:13.249Z,100015.59
2022-08-23T22:41:04.172Z,100009.94
2022-08-23T22:43:54.611Z,100008.34
2022-08-23T22:46:43.137Z,100011.16
2022-08-23T22:49:36.417Z,100006.03
2022-08-23T22:52:28.606Z,100009.06
2022-08-23T22:55:18.247Z,100019.59
2022-08-23T22:58:11.864Z,100017.16
2022-08-23T23:01:04.986Z,100025.66
2022-08-23T23:04:02.673Z,100028.72
2022-08-23T23:06:55.337Z,100017.78
2022-08-23T23:09:50.466Z,100028.03
2022-08-23T23:12:41.009Z,100036.72
2022-08-23T23:15:30.010Z,100038.06
2022-08-23T23:18:23.295Z,100035.56
2022-08-23T23:21:13.825Z,100033.28
2022-08-23T23:24:04.907Z,100035.91
2022-08-23T23:26:56.896Z,100045.94
2022-08-23T23:29:48.971Z,100043.09
2022-08-23T23:32:37.224Z,100038.34
2022-08-23T23:35:28.722Z,100038.34
2022-08-23T23:38:17.604Z,100053.44
2022-08-23T23:41:07.684Z,100049.59
2022-08-23T23:43:59.398Z,100049.66
2022-08-23T23:46:48.422Z,100057.84
2022-08-23T23:49:44.952Z,100059.69
2022-08-23T23:52:36.605Z,100056.13
2022-08-23T23:55:28.915Z,100052.81
2022-08-23T23:58:20.347Z,100057.44
